< < Back
Terminal Aerodrome Forecast


Current Version              Previous Versions:   1  2  3  4  5  6  7  8  9  

Terminal Aerodrome Forecast

268
FTUS44 KBMX 241727
TAFBHM
TAF
KBHM 241727Z 2418/2518 12005KT P6SM BKN120
     FM250400 13007KT P6SM VCSH BKN050 OVC100
     FM251100 16010KT P6SM VCSH OVC015
     FM251500 20012KT P6SM VCTS BKN025CB=

Latest METAR

457
SAUS70 KWBC 250900
MTRBHM
METAR KBHM 250853Z VRB04KT 6SM TSRA BR BKN044CB OVC060 17/14 A2978 RMK
AO2 PRESRR SLP076 OCNL LTGICCC S-N TS S-N MOV E P0008 60012
T01670144 56034


USA.gov is the U.S. government's official web portal to all federal, state and local government web resources and services.